Time;durP1;ratioP1;P1;durP2;ratioP2;P2;SDS_P1;SDS_P2;PMS_P1;PMS_P2;Temp;Humidity;BMP_temperature;BMP_pressure;BME280_temperature;BME280_humidity;BME280_pressure;Samples;Min_cycle;Max_cycle;Signal;HPM_P1;HPM_P2
2021/03/12 00:01:05;;;;;;;31.15;18.10;;;180.00;1408.00;;;;;;5033320;28;20152;-62
2021/03/12 00:03:33;;;;;;;31.35;16.73;;;180.10;1382.40;;;;;;5033631;28;20022;-62
2021/03/12 00:06:01;;;;;;;30.50;16.95;;;180.10;1382.40;;;;;;5033754;28;20545;-62
2021/03/12 00:08:47;;;;;;;27.75;16.60;;;204.80;1382.40;;;;;;5033852;28;20029;-61
2021/03/12 00:11:13;;;;;;;34.72;20.13;;;204.80;1382.40;;;;;;5033857;28;20025;-62
2021/03/12 00:13:39;;;;;;;29.80;16.65;;;204.80;1382.40;;;;;;5033777;28;20101;-62
2021/03/12 00:16:05;;;;;;;28.55;16.10;;;204.80;1382.40;;;;;;5033183;28;20582;-62
2021/03/12 00:18:40;;;;;;;26.35;16.48;;;204.80;1382.40;;;;;;5033970;28;20078;-62
2021/03/12 00:21:08;;;;;;;29.60;16.80;;;180.10;1408.00;;;;;;5034100;28;20029;-62
2021/03/12 00:23:34;;;;;;;30.83;17.42;;;204.80;1408.00;;;;;;5035796;28;20031;-64
2021/03/12 00:26:00;;;;;;;29.33;16.42;;;180.10;1408.00;;;;;;5035515;28;20064;-64
2021/03/12 00:28:26;;;;;;;33.33;16.92;;;180.10;1408.00;;;;;;5034567;28;20059;-63
2021/03/12 00:30:52;;;;;;;28.17;16.55;;;180.10;1408.00;;;;;;5034442;28;20108;-62
2021/03/12 00:33:19;;;;;;;32.03;17.17;;;180.00;1408.00;;;;;;5033476;28;20022;-62
2021/03/12 00:35:45;;;;;;;29.40;16.45;;;180.00;1408.00;;;;;;5033677;28;20037;-62
2021/03/12 00:38:12;;;;;;;28.98;17.08;;;180.00;1408.00;;;;;;5033597;28;20037;-62
2021/03/12 00:40:50;;;;;;;26.92;16.77;;;180.00;1408.00;;;;;;5033585;28;20025;-62
2021/03/12 00:43:17;;;;;;;30.15;16.83;;;180.10;1408.00;;;;;;5033398;28;20029;-62
2021/03/12 00:45:46;;;;;;;30.42;15.70;;;180.00;1408.00;;;;;;5033443;28;20091;-62
2021/03/12 00:48:12;;;;;;;29.48;17.13;;;180.00;1433.60;;;;;;5033445;28;20028;-62
2021/03/12 00:50:39;;;;;;;33.17;16.88;;;180.00;1433.60;;;;;;5033716;28;20036;-62
2021/03/12 00:53:06;;;;;;;30.40;16.40;;;179.90;1433.60;;;;;;5033376;28;20489;-62
2021/03/12 00:55:33;;;;;;;27.90;16.70;;;180.00;1433.60;;;;;;5033341;28;20080;-62
2021/03/12 00:57:59;;;;;;;32.10;16.13;;;180.00;1433.60;;;;;;5033107;28;20148;-62
2021/03/12 01:00:29;;;;;;;29.42;17.42;;;179.90;1459.20;;;;;;5033391;28;20057;-62
2021/03/12 01:02:55;;;;;;;28.40;16.40;;;179.90;1433.60;;;;;;5033502;28;20033;-62
2021/03/12 01:05:22;;;;;;;29.30;16.50;;;180.00;1433.60;;;;;;5033294;28;20038;-61
2021/03/12 01:07:48;;;;;;;29.55;16.15;;;180.00;1433.60;;;;;;5033320;28;20378;-62
2021/03/12 01:10:15;;;;;;;29.48;16.48;;;180.00;1433.60;;;;;;5033558;28;20593;-62
2021/03/12 01:12:41;;;;;;;25.42;15.82;;;180.00;1433.60;;;;;;5036997;28;20053;-62
2021/03/12 01:15:11;;;;;;;31.52;17.13;;;180.00;1433.60;;;;;;5036923;28;20029;-62
2021/03/12 01:17:37;;;;;;;30.65;16.45;;;180.10;1433.60;;;;;;5036973;28;20095;-62
2021/03/12 01:20:15;;;;;;;28.25;15.60;;;180.10;1433.60;;;;;;5037019;28;20027;-62
2021/03/12 01:22:43;;;;;;;27.92;15.40;;;180.10;1433.60;;;;;;5036633;28;20075;-62
2021/03/12 01:25:11;;;;;;;26.48;15.52;;;204.80;1433.60;;;;;;5019251;28;20033;-62
2021/03/12 01:27:39;;;;;;;28.45;16.27;;;204.80;1408.00;;;;;;5036515;28;20483;-62
2021/03/12 01:30:45;;;;;;;27.45;15.55;;;204.90;1408.00;;;;;;5036926;28;20360;-62
2021/03/12 01:33:11;;;;;;;26.27;15.07;;;204.90;1408.00;;;;;;5036090;28;20121;-62
2021/03/12 01:35:38;;;;;;;27.00;14.85;;;204.90;1408.00;;;;;;5036656;28;20108;-62
2021/03/12 01:38:04;;;;;;;27.70;14.85;;;205.00;1408.00;;;;;;5012281;28;20030;-62
2021/03/12 01:40:32;;;;;;;25.02;14.75;;;204.90;1408.00;;;;;;5016500;28;20072;-62
2021/03/12 01:42:59;;;;;;;30.63;15.68;;;205.00;1408.00;;;;;;5016586;28;20029;-62
2021/03/12 01:45:37;;;;;;;28.40;15.95;;;205.00;1382.40;;;;;;5016643;28;20038;-62
2021/03/12 01:48:15;;;;;;;31.55;16.17;;;205.00;1382.40;;;;;;5016763;28;20033;-62
2021/03/12 01:50:46;;;;;;;35.28;16.80;;;205.00;1382.40;;;;;;5016538;28;20026;-62
2021/03/12 01:53:17;;;;;;;30.60;15.85;;;205.00;1408.00;;;;;;5016820;28;20486;-62
2021/03/12 01:55:43;;;;;;;28.08;16.20;;;205.00;1408.00;;;;;;5016715;28;20391;-62
2021/03/12 01:58:10;;;;;;;30.75;16.23;;;205.00;1408.00;;;;;;5016465;28;20448;-62
2021/03/12 02:00:36;;;;;;;28.90;15.82;;;205.10;1408.00;;;;;;5023799;28;20057;-62
2021/03/12 02:03:05;;;;;;;27.13;15.20;;;205.00;1382.40;;;;;;5036301;28;20060;-62
2021/03/12 02:05:32;;;;;;;25.42;14.18;;;204.80;1408.00;;;;;;5035977;28;20043;-62
2021/03/12 02:07:57;;;;;;;26.08;14.23;;;204.80;1408.00;;;;;;5036167;28;20372;-62
2021/03/12 02:10:26;;;;;;;24.13;14.10;;;180.10;1433.60;;;;;;5036013;28;20025;-62
2021/03/12 02:13:16;;;;;;;28.38;14.45;;;204.80;1408.00;;;;;;5036005;28;20060;-62
2021/03/12 02:16:03;;;;;;;25.13;13.85;;;204.80;1408.00;;;;;;5035795;28;20035;-62
2021/03/12 02:18:59;;;;;;;25.85;13.63;;;204.90;1408.00;;;;;;5035751;28;20022;-62
2021/03/12 02:21:36;;;;;;;26.45;14.05;;;204.90;1382.40;;;;;;4974435;28;20143;-62
2021/03/12 02:24:27;;;;;;;24.83;13.43;;;205.00;1382.40;;;;;;4974819;28;20501;-62
2021/03/12 02:27:01;;;;;;;25.08;13.10;;;205.00;1382.40;;;;;;4974217;28;20047;-62
2021/03/12 02:29:28;;;;;;;22.33;13.50;;;205.10;1382.40;;;;;;4974524;28;20027;-62
2021/03/12 02:31:57;;;;;;;22.95;13.13;;;205.10;1382.40;;;;;;4974991;28;20047;-62
2021/03/12 02:34:28;;;;;;;26.02;14.13;;;205.10;1356.80;;;;;;4974797;28;20027;-62
2021/03/12 02:36:56;;;;;;;21.90;12.90;;;205.10;1356.80;;;;;;4974571;28;20158;-62
2021/03/12 02:39:26;;;;;;;23.42;13.77;;;205.10;1356.80;;;;;;4974482;28;20436;-62
2021/03/12 02:41:54;;;;;;;23.30;13.05;;;205.10;1356.80;;;;;;4974520;28;20035;-62
2021/03/12 02:44:22;;;;;;;23.38;13.55;;;205.20;1356.80;;;;;;4974384;28;20475;-62
2021/03/12 02:46:49;;;;;;;21.27;13.05;;;205.20;1356.80;;;;;;4974056;28;20035;-62
2021/03/12 02:49:15;;;;;;;21.35;13.07;;;205.30;1356.80;;;;;;4972521;28;20023;-61
2021/03/12 02:51:42;;;;;;;23.05;13.73;;;205.30;1356.80;;;;;;4973296;28;20066;-62
2021/03/12 02:54:10;;;;;;;25.58;14.02;;;205.40;1356.80;;;;;;4973324;28;20484;-62
2021/03/12 02:56:36;;;;;;;23.75;12.90;;;205.40;1331.20;;;;;;4974054;28;20075;-62
2021/03/12 02:59:03;;;;;;;23.58;13.18;;;205.50;1331.20;;;;;;5040508;28;20021;-62
2021/03/12 03:01:31;;;;;;;22.58;13.70;;;205.50;1331.20;;;;;;5043803;28;20045;-61
2021/03/12 03:03:57;;;;;;;22.00;12.85;;;205.50;1331.20;;;;;;5044779;28;20064;-61
2021/03/12 03:06:25;;;;;;;23.65;13.90;;;205.50;1331.20;;;;;;5042926;28;20034;-61
2021/03/12 03:08:51;;;;;;;22.40;12.15;;;205.60;1305.60;;;;;;5043338;28;20020;-62
2021/03/12 03:11:17;;;;;;;20.80;12.45;;;205.60;1305.60;;;;;;5044605;28;20061;-62
2021/03/12 03:13:46;;;;;;;21.23;12.50;;;205.70;1305.60;;;;;;5043260;28;20041;-62
2021/03/12 03:16:22;;;;;;;21.17;11.95;;;205.70;1305.60;;;;;;5043421;28;20029;-62
2021/03/12 03:18:49;;;;;;;20.83;12.50;;;230.40;1305.60;;;;;;5041659;28;20467;-62
2021/03/12 03:21:16;;;;;;;21.02;12.73;;;230.40;1305.60;;;;;;5041393;28;20030;-61
2021/03/12 03:23:44;;;;;;;19.63;12.70;;;230.50;1280.00;;;;;;5041697;28;20107;-62
2021/03/12 03:26:10;;;;;;;20.00;12.07;;;230.50;1280.00;;;;;;5044572;28;20029;-64
2021/03/12 03:28:37;;;;;;;23.90;13.80;;;230.50;1280.00;;;;;;5043748;28;20021;-65
2021/03/12 03:31:03;;;;;;;23.55;13.77;;;230.50;1280.00;;;;;;5044767;28;20021;-62
2021/03/12 03:33:30;;;;;;;20.67;12.07;;;230.60;1280.00;;;;;;5047853;28;20021;-63
2021/03/12 03:35:57;;;;;;;22.38;11.80;;;230.60;1280.00;;;;;;5044439;28;20059;-63
2021/03/12 03:38:24;;;;;;;19.08;11.65;;;230.60;1254.40;;;;;;5045486;28;20025;-63
2021/03/12 03:40:50;;;;;;;22.90;13.32;;;230.60;1254.40;;;;;;5042727;28;20151;-62
2021/03/12 03:43:21;;;;;;;22.15;12.68;;;230.60;1254.40;;;;;;5043771;28;20100;-62
2021/03/12 03:45:47;;;;;;;22.63;12.75;;;230.60;1254.40;;;;;;5044281;28;20391;-62
2021/03/12 03:48:14;;;;;;;19.50;11.85;;;230.50;1280.00;;;;;;5039866;28;20021;-63
2021/03/12 03:50:40;;;;;;;21.00;12.20;;;230.50;1254.40;;;;;;5043313;28;20086;-61
2021/03/12 03:53:06;;;;;;;23.55;13.25;;;230.50;1280.00;;;;;;5041330;28;20017;-61
2021/03/12 03:55:32;;;;;;;21.58;12.77;;;230.50;1280.00;;;;;;5043783;28;20052;-62
2021/03/12 03:58:00;;;;;;;21.55;12.55;;;230.50;1280.00;;;;;;5042441;28;20024;-61
2021/03/12 04:00:27;;;;;;;21.17;12.05;;;205.60;1280.00;;;;;;5040902;28;20087;-62
2021/03/12 04:02:54;;;;;;;21.48;11.57;;;230.50;1254.40;;;;;;5033520;28;20018;-62
2021/03/12 04:05:21;;;;;;;21.00;11.20;;;230.50;1254.40;;;;;;5032958;28;20395;-62
2021/03/12 04:07:46;;;;;;;19.25;11.63;;;230.50;1280.00;;;;;;5033513;28;20044;-63
2021/03/12 04:10:13;;;;;;;21.55;12.65;;;230.50;1280.00;;;;;;5033348;28;20100;-63
2021/03/12 04:12:39;;;;;;;22.65;13.65;;;230.50;1280.00;;;;;;5033077;28;20370;-61
2021/03/12 04:15:07;;;;;;;21.85;13.35;;;230.50;1280.00;;;;;;5033186;28;20052;-61
2021/03/12 04:17:34;;;;;;;24.88;15.70;;;230.50;1280.00;;;;;;5032951;28;20076;-62
2021/03/12 04:20:00;;;;;;;26.80;17.00;;;230.40;1280.00;;;;;;5032862;28;20112;-62
2021/03/12 04:22:26;;;;;;;29.00;18.50;;;230.50;1280.00;;;;;;5033616;28;20049;-63
2021/03/12 04:24:52;;;;;;;26.17;16.05;;;230.50;1280.00;;;;;;5033285;28;20021;-63
2021/03/12 04:27:19;;;;;;;30.15;15.32;;;230.40;1280.00;;;;;;5032225;28;20037;-61
2021/03/12 04:29:46;;;;;;;117.30;38.55;;;205.70;1305.60;;;;;;5032452;28;20017;-61
2021/03/12 04:32:12;;;;;;;103.82;32.08;;;205.70;1305.60;;;;;;5032275;28;20487;-62
2021/03/12 04:34:38;;;;;;;146.80;49.65;;;205.70;1305.60;;;;;;5032560;28;20018;-62
2021/03/12 04:37:04;;;;;;;62.42;29.45;;;205.60;1305.60;;;;;;5032483;28;20175;-62
2021/03/12 04:39:31;;;;;;;61.63;30.70;;;205.70;1305.60;;;;;;5032406;28;20022;-61
2021/03/12 04:41:58;;;;;;;44.13;23.42;;;205.70;1305.60;;;;;;5014594;28;20025;-63
2021/03/12 04:44:24;;;;;;;40.20;21.98;;;205.70;1305.60;;;;;;5032960;28;20490;-61
2021/03/12 04:46:51;;;;;;;31.00;18.25;;;205.70;1305.60;;;;;;5036183;28;20514;-63
2021/03/12 04:49:19;;;;;;;32.03;17.67;;;205.70;1305.60;;;;;;5036423;28;20025;-61
2021/03/12 04:51:46;;;;;;;28.83;16.55;;;205.60;1305.60;;;;;;5033116;28;20045;-62
2021/03/12 04:54:15;;;;;;;28.52;18.17;;;205.70;1331.20;;;;;;5004829;28;20448;-62
2021/03/12 04:56:41;;;;;;;27.00;15.27;;;205.60;1331.20;;;;;;5005025;28;20032;-61
2021/03/12 04:59:08;;;;;;;27.90;16.25;;;205.60;1331.20;;;;;;5006658;28;20426;-62
2021/03/12 05:01:35;;;;;;;23.38;14.68;;;205.60;1331.20;;;;;;5029232;28;20065;-62
2021/03/12 05:04:05;;;;;;;25.20;14.60;;;205.60;1331.20;;;;;;5035464;28;20033;-62
2021/03/12 05:06:32;;;;;;;30.95;17.23;;;205.60;1331.20;;;;;;5032114;28;20060;-62
2021/03/12 05:08:59;;;;;;;37.90;21.92;;;205.60;1331.20;;;;;;5035243;28;20036;-62
2021/03/12 05:11:25;;;;;;;36.25;22.00;;;205.60;1331.20;;;;;;5034877;28;20707;-62
2021/03/12 05:13:52;;;;;;;30.55;18.52;;;205.70;1356.80;;;;;;5035326;28;20029;-62
2021/03/12 05:16:21;;;;;;;25.98;15.80;;;205.70;1356.80;;;;;;5035084;28;20021;-62
2021/03/12 05:18:46;;;;;;;25.52;15.18;;;230.40;1356.80;;;;;;5035155;28;20351;-61
2021/03/12 05:21:14;;;;;;;30.10;19.42;;;230.40;1356.80;;;;;;5035338;28;20033;-62
2021/03/12 05:23:40;;;;;;;31.27;20.63;;;230.40;1382.40;;;;;;5034847;28;20017;-62
2021/03/12 05:26:05;;;;;;;30.38;20.50;;;230.40;1382.40;;;;;;5034773;28;20041;-62
2021/03/12 05:28:31;;;;;;;34.70;22.02;;;230.40;1382.40;;;;;;5034885;28;20021;-62
2021/03/12 05:30:57;;;;;;;43.00;23.95;;;230.40;1382.40;;;;;;5034705;28;20030;-62
2021/03/12 05:33:23;;;;;;;29.00;16.85;;;230.40;1408.00;;;;;;5034682;28;20025;-62
2021/03/12 05:35:49;;;;;;;41.83;20.33;;;230.50;1408.00;;;;;;5034681;28;20025;-62
2021/03/12 05:38:14;;;;;;;54.03;25.52;;;230.40;1433.60;;;;;;5034882;28;20371;-62
2021/03/12 05:40:41;;;;;;;57.17;25.80;;;230.50;1459.20;;;;;;5034678;28;20386;-61
2021/03/12 05:43:09;;;;;;;76.97;39.83;;;230.40;1433.60;;;;;;5034437;28;20043;-61
2021/03/12 05:45:35;;;;;;;55.30;29.50;;;230.50;1459.20;;;;;;5032142;28;20049;-61
2021/03/12 05:48:01;;;;;;;48.70;28.73;;;230.50;1459.20;;;;;;5032176;28;20029;-61
2021/03/12 05:50:27;;;;;;;54.10;31.73;;;230.50;1459.20;;;;;;5033250;28;20471;-62
2021/03/12 05:52:54;;;;;;;129.10;80.38;;;230.60;1459.20;;;;;;5034350;28;20032;-61
2021/03/12 05:55:20;;;;;;;100.65;58.15;;;230.60;1459.20;;;;;;5033984;28;20431;-61
2021/03/12 05:57:47;;;;;;;56.95;34.60;;;230.60;1459.20;;;;;;5033842;28;20430;-61
2021/03/12 06:00:14;;;;;;;47.17;27.35;;;230.70;1459.20;;;;;;5036496;28;20080;-61
2021/03/12 06:02:40;;;;;;;39.55;21.05;;;230.80;1459.20;;;;;;5043574;28;20437;-62
2021/03/12 06:05:10;;;;;;;65.43;37.35;;;230.90;1459.20;;;;;;5051951;28;20024;-61
2021/03/12 06:07:37;;;;;;;69.97;34.13;;;230.90;1459.20;;;;;;5055794;28;20071;-62
2021/03/12 06:10:05;;;;;;;82.32;38.45;;;230.90;1459.20;;;;;;5056134;28;20371;-62
2021/03/12 06:12:32;;;;;;;44.97;24.83;;;231.00;1484.80;;;;;;5055942;28;20033;-62
2021/03/12 06:14:58;;;;;;;39.42;24.38;;;231.00;1484.80;;;;;;5055983;28;20043;-62
2021/03/12 06:17:40;;;;;;;41.17;24.40;;;231.10;1510.40;;;;;;5055419;28;20024;-61
2021/03/12 06:20:17;;;;;;;58.05;29.48;;;231.10;1510.40;;;;;;5055676;28;20024;-63
2021/03/12 06:23:09;;;;;;;73.28;35.88;;;231.10;1510.40;;;;;;5055795;28;20032;-61
2021/03/12 06:25:35;;;;;;;86.93;44.95;;;231.20;1510.40;;;;;;5051794;28;20091;-62
2021/03/12 06:28:17;;;;;;;54.20;30.20;;;231.10;1536.00;;;;;;5055681;28;20025;-62
2021/03/12 06:30:43;;;;;;;72.55;39.05;;;231.10;1536.00;;;;;;5055609;28;20025;-61
2021/03/12 06:33:30;;;;;;;67.95;36.45;;;231.20;1561.60;;;;;;5047473;28;20033;-62
2021/03/12 06:35:57;;;;;;;45.88;26.70;;;231.00;1587.20;;;;;;5035903;28;20026;-61
2021/03/12 06:38:24;;;;;;;39.95;21.70;;;231.00;1561.60;;;;;;5052798;28;20025;-62
2021/03/12 06:40:51;;;;;;;37.67;22.45;;;231.10;1587.20;;;;;;5055116;28;20029;-61
2021/03/12 06:43:23;;;;;;;44.28;26.13;;;231.00;1587.20;;;;;;5054700;28;20029;-61
2021/03/12 06:45:49;;;;;;;55.17;30.30;;;231.10;1612.80;;;;;;5055594;28;20475;-61
2021/03/12 06:48:21;;;;;;;55.60;30.60;;;231.00;1638.40;;;;;;5055494;28;20078;-61
2021/03/12 06:51:11;;;;;;;56.60;31.67;;;231.00;1638.40;;;;;;5055238;28;20152;-61
2021/03/12 06:53:42;;;;;;;43.78;25.23;;;231.00;1612.80;;;;;;5055458;28;20102;-61
2021/03/12 06:56:08;;;;;;;41.75;24.27;;;231.00;1638.40;;;;;;5050040;28;20055;-61
2021/03/12 06:58:35;;;;;;;47.03;29.38;;;231.00;1664.00;;;;;;5034742;28;20017;-61
2021/03/12 07:01:02;;;;;;;54.50;32.20;;;231.00;1664.00;;;;;;5033717;28;20395;-61
2021/03/12 07:03:28;;;;;;;55.08;34.50;;;231.00;1715.20;;;;;;5033323;28;20025;-62
2021/03/12 07:06:02;;;;;;;49.75;30.13;;;230.90;1740.80;;;;;;5033449;28;20060;-65
2021/03/12 07:08:32;;;;;;;47.90;30.63;;;231.00;1766.40;;;;;;5033063;28;20036;-64
2021/03/12 07:10:59;;;;;;;38.75;22.65;;;231.10;1766.40;;;;;;5033819;28;20105;-65
2021/03/12 07:13:26;;;;;;;39.08;22.08;;;231.00;1766.40;;;;;;5034535;28;20022;-63
2021/03/12 07:15:54;;;;;;;51.35;28.33;;;231.00;1766.40;;;;;;5033704;28;20033;-62
2021/03/12 07:18:21;;;;;;;64.68;32.45;;;231.10;1792.00;;;;;;5034903;28;20078;-67
2021/03/12 07:20:47;;;;;;;77.20;42.40;;;231.00;1843.20;;;;;;5034614;28;20029;-65
2021/03/12 07:23:17;;;;;;;86.72;47.78;;;231.00;1868.80;;;;;;5034592;28;20063;-66
2021/03/12 07:25:45;;;;;;;73.68;43.60;;;231.00;1894.40;;;;;;5034247;28;20475;-64
2021/03/12 07:28:14;;;;;;;86.25;48.05;;;231.00;1868.80;;;;;;5034467;28;20021;-62
2021/03/12 07:30:42;;;;;;;81.50;44.40;;;231.20;1920.00;;;;;;5033130;28;20021;-67
2021/03/12 07:33:09;;;;;;;72.95;44.50;;;231.30;1894.40;;;;;;5033635;28;20049;-66
2021/03/12 07:35:37;;;;;;;92.60;50.53;;;256.10;1945.60;;;;;;5032953;28;20415;-68
2021/03/12 07:38:05;;;;;;;82.97;47.70;;;256.30;1894.40;;;;;;5033522;28;20412;-63
2021/03/12 07:40:32;;;;;;;78.78;47.58;;;256.30;1920.00;;;;;;5033278;28;20087;-67
2021/03/12 07:42:58;;;;;;;93.00;52.70;;;256.30;1920.00;;;;;;5033395;28;20037;-63
2021/03/12 07:45:25;;;;;;;67.40;40.72;;;256.40;1920.00;;;;;;5032240;28;20033;-64
2021/03/12 07:47:51;;;;;;;70.70;40.17;;;256.40;1894.40;;;;;;5033095;28;20048;-62
2021/03/12 07:50:29;;;;;;;236.43;71.00;;;256.50;1920.00;;;;;;5032661;28;20029;-61
2021/03/12 07:52:56;;;;;;;324.23;74.63;;;256.60;1945.60;;;;;;5002924;28;20427;-59
2021/03/12 07:55:36;;;;;;;55.05;26.88;;;256.70;1945.60;;;;;;5005517;28;20030;-61
2021/03/12 07:58:09;;;;;;;29.52;19.25;;;256.80;2022.40;;;;;;5001697;28;20045;-60
2021/03/12 08:00:56;;;;;;;28.90;19.88;;;256.80;2073.60;;;;;;5014979;28;20132;-61
2021/03/12 08:03:41;;;;;;;44.63;29.27;;;256.90;2048.00;;;;;;5041091;28;20029;-60
2021/03/12 08:06:19;;;;;;;46.35;29.92;;;281.60;2073.60;;;;;;5036525;28;20041;-61
2021/03/12 08:08:45;;;;;;;41.33;27.38;;;281.60;2048.00;;;;;;5034102;28;20033;-61
2021/03/12 08:11:20;;;;;;;46.88;30.50;;;256.80;1996.80;;;;;;5042070;28;20028;-61
2021/03/12 08:13:46;;;;;;;;;;;256.80;2048.00;;;;;;5039096;28;20116;-61
2021/03/12 08:16:12;;;;;;;36.25;22.05;;;256.90;2048.00;;;;;;5042266;28;19996;-62
2021/03/12 08:18:38;;;;;;;27.08;18.85;;;256.80;1996.80;;;;;;5042574;28;20501;-60
2021/03/12 08:21:35;;;;;;;23.67;16.05;;;281.60;2048.00;;;;;;5040624;28;20017;-60
2021/03/12 08:24:02;;;;;;;25.30;15.70;;;281.90;2022.40;;;;;;5040753;28;20379;-60
2021/03/12 08:26:47;;;;;;;25.40;15.05;;;281.90;1945.60;;;;;;5042171;28;20041;-60
2021/03/12 08:29:38;;;;;;;29.92;19.90;;;282.10;1920.00;;;;;;5040030;28;20017;-60
2021/03/12 08:32:38;;;;;;;62.80;39.38;;;282.20;1971.20;;;;;;5042114;28;20099;-61
2021/03/12 08:35:25;;;;;;;36.20;25.08;;;307.20;1971.20;;;;;;5042140;28;20409;-60
2021/03/12 08:37:51;;;;;;;245.20;128.35;;;307.30;1920.00;;;;;;5036693;28;20041;-60
2021/03/12 08:40:16;;;;;;;64.95;39.78;;;307.50;1971.20;;;;;;5041445;28;20368;-60
2021/03/12 08:42:53;;;;;;;127.82;84.93;;;307.40;1945.60;;;;;;5039788;28;20028;-61
2021/03/12 08:45:48;;;;;;;129.77;83.15;;;307.70;1996.80;;;;;;5040172;28;20057;-60
2021/03/12 08:48:33;;;;;;;108.82;72.70;;;307.90;1920.00;;;;;;5036577;28;20025;-60
2021/03/12 08:51:01;;;;;;;;;;;308.00;1868.80;;;;;;5033735;28;20026;-60
2021/03/12 08:53:31;;;;;;;112.05;74.28;;;308.10;1894.40;;;;;;5037639;28;19913;-61
2021/03/12 08:55:58;;;;;;;135.30;86.45;;;332.80;1894.40;;;;;;5041941;28;20485;-61
2021/03/12 08:58:32;;;;;;;124.60;78.70;;;332.80;1945.60;;;;;;5041293;28;20117;-60
2021/03/12 09:01:00;;;;;;;111.68;72.55;;;333.10;1920.00;;;;;;5036799;28;20068;-60
2021/03/12 09:03:30;;;;;;;83.63;52.88;;;333.30;1894.40;;;;;;5038949;28;20034;-66
2021/03/12 09:06:06;;;;;;;132.73;91.97;;;333.50;1817.60;;;;;;5038718;28;20059;-59
2021/03/12 09:08:34;;;;;;;110.75;80.68;;;358.40;1766.40;;;;;;5037033;28;20475;-59
2021/03/12 09:11:01;;;;;;;108.18;69.20;;;358.40;1766.40;;;;;;5034186;28;20052;-60
2021/03/12 09:13:30;;;;;;;59.45;39.60;;;358.40;1766.40;;;;;;5032572;28;20069;-59
2021/03/12 09:15:57;;;;;;;85.53;55.17;;;333.60;1766.40;;;;;;5034139;28;20032;-60
2021/03/12 09:18:26;;;;;;;47.78;32.70;;;333.70;1792.00;;;;;;5032963;28;20048;-60
2021/03/12 09:20:55;;;;;;;68.05;42.42;;;333.70;1792.00;;;;;;5032684;28;20029;-63
2021/03/12 09:23:41;;;;;;;55.08;34.53;;;333.70;1792.00;;;;;;5032955;28;20049;-59
2021/03/12 09:26:19;;;;;;;62.30;34.53;;;358.40;1817.60;;;;;;5032527;28;20045;-59
2021/03/12 09:28:47;;;;;;;42.65;26.52;;;333.70;1843.20;;;;;;5032650;28;20024;-60
2021/03/12 09:31:15;;;;;;;75.63;40.65;;;358.50;1817.60;;;;;;5035472;28;20028;-63
2021/03/12 09:33:45;;;;;;;26.70;16.67;;;358.90;1740.80;;;;;;5055166;28;20033;-60
2021/03/12 09:36:33;;;;;;;22.77;16.75;;;359.00;1689.60;;;;;;5052648;28;20028;-63
2021/03/12 09:39:19;;;;;;;43.85;30.98;;;359.10;1715.20;;;;;;5033290;28;20463;-59
2021/03/12 09:41:51;;;;;;;29.30;21.52;;;359.00;1715.20;;;;;;5035236;28;20026;-60
2021/03/12 09:44:17;;;;;;;18.92;14.70;;;358.70;1715.20;;;;;;5018292;28;20025;-60
2021/03/12 09:46:54;;;;;;;48.67;27.42;;;358.70;1715.20;;;;;;5035715;28;20041;-66
2021/03/12 09:49:29;;;;;;;17.90;12.63;;;358.40;1740.80;;;;;;5035799;28;20495;-63
2021/03/12 09:51:58;;;;;;;71.30;45.55;;;358.40;1740.80;;;;;;5035329;28;20025;-61
2021/03/12 09:54:26;;;;;;;47.17;31.55;;;333.60;1740.80;;;;;;5035524;28;20033;-63
2021/03/12 09:56:55;;;;;;;62.97;39.25;;;333.50;1766.40;;;;;;5037146;28;20037;-60
2021/03/12 09:59:27;;;;;;;47.47;33.92;;;333.60;1740.80;;;;;;5055201;28;20166;-60
2021/03/12 10:01:53;;;;;;;85.45;55.17;;;333.40;1740.80;;;;;;5055039;28;20045;-62
2021/03/12 10:04:23;;;;;;;58.40;46.10;;;333.40;1740.80;;;;;;5055403;28;20039;-61
2021/03/12 10:07:15;;;;;;;41.47;28.52;;;333.40;1766.40;;;;;;5055501;28;20108;-62
2021/03/12 10:09:46;;;;;;;48.33;30.10;;;333.50;1740.80;;;;;;5042698;28;20035;-62
2021/03/12 10:12:23;;;;;;;21.27;15.40;;;333.60;1740.80;;;;;;5046271;28;20025;-62
2021/03/12 10:14:55;;;;;;;28.52;20.38;;;333.60;1715.20;;;;;;5055374;28;20079;-60
2021/03/12 10:17:26;;;;;;;32.20;24.00;;;358.40;1740.80;;;;;;5055467;28;20484;-59
2021/03/12 10:20:03;;;;;;;30.67;22.00;;;358.70;1766.40;;;;;;5055229;28;20024;-61
2021/03/12 10:22:41;;;;;;;20.88;14.15;;;358.90;1689.60;;;;;;5054650;28;20028;-60
2021/03/12 10:25:22;;;;;;;15.10;11.13;;;358.90;1689.60;;;;;;5053246;28;20033;-59
2021/03/12 10:27:52;;;;;;;27.20;19.05;;;359.00;1638.40;;;;;;5024897;28;20059;-61
2021/03/12 10:30:22;;;;;;;70.63;44.45;;;359.00;1638.40;;;;;;5029693;28;20071;-59
2021/03/12 10:32:57;;;;;;;26.00;17.60;;;359.10;1612.80;;;;;;5043312;28;20052;-60
2021/03/12 10:35:24;;;;;;;32.08;21.80;;;384.00;1484.80;;;;;;5036160;28;20036;-62
2021/03/12 10:37:51;;;;;;;33.33;21.08;;;384.10;1459.20;;;;;;5035252;28;20481;-61
2021/03/12 10:40:19;;;;;;;21.92;15.48;;;359.30;1484.80;;;;;;5032075;28;20391;-59
2021/03/12 10:42:45;;;;;;;43.20;27.20;;;384.20;1484.80;;;;;;5037864;28;20032;-60
2021/03/12 10:45:20;;;;;;;28.55;21.95;;;384.30;1484.80;;;;;;5042483;28;20022;-59
2021/03/12 10:48:00;;;;;;;30.10;22.13;;;384.40;1382.40;;;;;;5040914;28;20026;-60
2021/03/12 10:50:27;;;;;;;23.70;17.08;;;384.30;1356.80;;;;;;5041638;28;20029;-59
2021/03/12 10:53:13;;;;;;;21.45;15.90;;;384.20;1408.00;;;;;;5042290;28;20064;-60
2021/03/12 10:55:42;;;;;;;24.73;16.35;;;384.20;1382.40;;;;;;5044231;28;20378;-61
2021/03/12 10:58:25;;;;;;;43.08;28.75;;;384.20;1382.40;;;;;;5043916;28;20033;-59
2021/03/12 11:01:25;;;;;;;44.42;26.52;;;384.00;1433.60;;;;;;5043509;28;20096;-59
2021/03/12 11:03:52;;;;;;;41.67;28.45;;;359.10;1459.20;;;;;;5044105;28;20036;-59
2021/03/12 11:06:22;;;;;;;66.28;37.97;;;359.10;1484.80;;;;;;5039970;28;20082;-60
2021/03/12 11:08:48;;;;;;;64.03;43.42;;;358.90;1510.40;;;;;;5042954;28;20052;-59
2021/03/12 11:11:21;;;;;;;48.55;30.17;;;358.70;1561.60;;;;;;5044080;28;20052;-61
2021/03/12 11:13:48;;;;;;;46.35;30.02;;;358.70;1587.20;;;;;;5040183;28;20044;-59
2021/03/12 11:16:14;;;;;;;36.83;26.23;;;358.60;1612.80;;;;;;5036436;28;20526;-61
2021/03/12 11:18:40;;;;;;;63.92;35.90;;;358.60;1612.80;;;;;;5045717;28;20113;-61
2021/03/12 11:21:09;;;;;;;52.10;35.25;;;358.40;1664.00;;;;;;5034569;28;20029;-59
2021/03/12 11:23:35;;;;;;;32.50;22.90;;;333.60;1868.80;;;;;;5032739;28;20033;-61
2021/03/12 11:26:01;;;;;;;32.05;24.65;;;333.40;1945.60;;;;;;5036585;28;20045;-61
2021/03/12 11:28:28;;;;;;;26.45;19.52;;;333.30;1945.60;;;;;;5040212;28;20028;-60
2021/03/12 11:30:55;;;;;;;26.48;18.40;;;333.00;1945.60;;;;;;5045484;28;20018;-59
2021/03/12 11:33:22;;;;;;;28.05;20.75;;;333.00;1945.60;;;;;;5053719;28;20028;-59
2021/03/12 11:35:48;;;;;;;29.20;20.98;;;333.00;1945.60;;;;;;5053767;28;20379;-59
2021/03/12 11:38:14;;;;;;;29.30;20.55;;;332.80;1996.80;;;;;;5053741;28;20033;-58
2021/03/12 11:40:40;;;;;;;36.60;24.30;;;308.10;1971.20;;;;;;5053504;28;20021;-59
2021/03/12 11:43:07;;;;;;;37.55;25.10;;;307.90;1996.80;;;;;;5053268;28;20104;-59
2021/03/12 11:45:34;;;;;;;57.17;34.40;;;307.90;1971.20;;;;;;5053281;28;20039;-58
2021/03/12 11:48:02;;;;;;;70.90;41.90;;;308.00;1971.20;;;;;;5053530;28;20029;-58
2021/03/12 11:50:29;;;;;;;53.42;33.65;;;307.90;1945.60;;;;;;5053571;28;20025;-58
2021/03/12 11:52:55;;;;;;;46.70;30.65;;;307.80;1971.20;;;;;;5053196;28;20071;-61
2021/03/12 11:55:22;;;;;;;41.42;28.10;;;307.80;2022.40;;;;;;5032211;28;20431;-58
2021/03/12 11:57:48;;;;;;;42.30;28.02;;;307.70;2022.40;;;;;;5053649;28;20104;-59
2021/03/12 12:00:15;;;;;;;41.17;26.77;;;307.60;1971.20;;;;;;5053587;28;20140;-59
2021/03/12 12:02:42;;;;;;;55.83;35.28;;;307.60;2022.40;;;;;;5053558;28;20028;-63
2021/03/12 12:05:10;;;;;;;104.40;56.67;;;307.60;2073.60;;;;;;5053455;28;20056;-59
2021/03/12 12:07:36;;;;;;;81.32;47.47;;;307.60;2073.60;;;;;;5052372;28;20053;-60
2021/03/12 12:10:07;;;;;;;176.32;109.57;;;307.60;2073.60;;;;;;5053191;28;20032;-60
2021/03/12 12:12:33;;;;;;;68.15;43.20;;;307.50;2073.60;;;;;;5053126;28;20028;-60